Yorkana, Pennsylvania
Current Conditions -  °F | °C
As of 7:56 PM on Friday 28 Nov 2014 (Local Time) from KMDT Reporting Station
Broken Clouds Broken Clouds  
Wind Chill: 22°   Ceiling: 22000
Heat Index: 29°   Visibility: 10mi
Dew Point: 15°   Wind: 7mph
Humidity: 56%   Direction: 290°WNW
Pressure: 30.28"   Gusts: NA
Location:  40.0152°N, 76.5974°W
Report Text: KMDT 290056Z 29006KT 10SM BKN220 M02/M09 A3028 RMK AO2 SLP258 T10171094
Loading
Personal Weather Stations






























Interactive Weather Map New forecast layout! Learn more

10-Day Weather Forecast

Advertisements
Track Severe Weather on mobile